Coral Bay — D5FR8 — position and weather

sailwx.info

Track history (hours):
 
Tides and Currents Weather Stations Pressure Air Temp Water Temp Dewpoint Dewpoint Depression Visibility Wind Speed Wind Dir Waves Ship Positions

Coral Bay

Last reported at 2018-Jun-15 23:44 UTC. Time now 2018-Jun-18 22:40 UTC.
Position N 25°60' W 079°41'.

Length 212 m; draft 8.5 m.

Type: Cargo ship. MMSI: 636017218.

Date/timePositionNaut miles runAvg speedWind from/ knotsBaromVisibWave heightAir tempDewpointWater temp
2018-Jun-15 23:44N 25°60' W 079°41'312.1
2018-Jun-15 23:28N 26°01' W 079°45'612.1
2018-Jun-15 23:00N 26°03' W 079°51'612.7
2018-Jun-15 22:30N 26°04' W 079°57'612.9
2018-Jun-15 22:00N 26°05' W 080°05'2 4.4
2018-Jun-15 21:30N 26°04' W 080°07'0 0.4
2018-Jun-15 21:00N 26°04' W 080°07'0 0.0
2018-Jun-15 20:30N 26°04' W 080°07'0 0.0
2018-Jun-15 20:00N 26°04' W 080°07'0 0.0
2018-Jun-15 19:30N 26°04' W 080°07'0 0.0
2018-Jun-15 19:00N 26°04' W 080°07'0 0.0
2018-Jun-15 18:30N 26°04' W 080°07'0 0.0
2018-Jun-15 18:00N 26°04' W 080°07'0 0.0
2018-Jun-15 17:30N 26°04' W 080°07'0 0.0
2018-Jun-15 16:57N 26°04' W 080°07'0 0.0
2018-Jun-15 16:30N 26°04' W 080°07'0 0.0
2018-Jun-15 16:00N 26°04' W 080°07'0 0.0
2018-Jun-15 15:30N 26°04' W 080°07'0 0.0
2018-Jun-15 15:00N 26°04' W 080°07'0 0.0
2018-Jun-15 14:30N 26°04' W 080°07'0 0.0
2018-Jun-15 13:51N 26°04' W 080°07'0 0.0
2018-Jun-15 13:18N 26°04' W 080°07'0 0.0
2018-Jun-15 12:48N 26°04' W 080°07'0 0.0
2018-Jun-15 12:24N 26°04' W 080°07'0 0.0
2018-Jun-15 11:54N 26°04' W 080°07'0 0.0
2018-Jun-15 11:24N 26°04' W 080°07'0 0.0
2018-Jun-15 10:54N 26°04' W 080°07'0 0.0
2018-Jun-15 10:24N 26°04' W 080°07'0 0.0
2018-Jun-15 09:58N 26°04' W 080°07'1 1.8
2018-Jun-15 09:30N 26°05' W 080°07'3 5.9
2018-Jun-15 09:00N 26°05' W 080°04'3 5.6
2018-Jun-15 08:30N 26°05' W 080°01'5 8.9
2018-Jun-15 08:00N 26°04' W 079°56'2 4.7
2018-Jun-15 07:30N 26°03' W 079°53'4 8.1
2018-Jun-15 06:59N 26°02' W 079°49'1 2.4
2018-Jun-15 06:30N 26°02' W 079°50'611.8
2018-Jun-15 05:59N 26°00' W 079°43'2 3.3
2018-Jun-15 05:20N 26°00' W 079°45'411.7
2018-Jun-15 05:00N 25°59' W 079°41'611.1
2018-Jun-15 04:30N 25°54' W 079°38'715.1
2018-Jun-15 04:00N 25°47' W 079°38'815.0
2018-Jun-15 03:30N 25°39' W 079°38'  
2018-Jun-08 03:24N 28°14' W 094°35'2013.0
2018-Jun-08 01:53N 28°29' W 094°50'1313.4
2018-Jun-08 00:56N 28°39' W 094°59'813.3
2018-Jun-08 00:21N 28°45' W 095°05'513.4
2018-Jun-08 00:00N 28°48' W 095°09'713.2
2018-Jun-07 23:30N 28°53' W 095°14'510.5
2018-Jun-07 23:00N 28°56' W 095°18'1 3.0
2018-Jun-07 22:30N 28°57' W 095°20'0 0.0
2018-Jun-07 22:00N 28°57' W 095°20'0 0.0
2018-Jun-07 21:29N 28°57' W 095°20'0 0.0
2018-Jun-07 20:56N 28°57' W 095°20'0 0.0
2018-Jun-07 20:29N 28°57' W 095°20'0 0.0
2018-Jun-07 19:47N 28°57' W 095°20'0 0.0
2018-Jun-07 19:29N 28°57' W 095°20'0 0.0
2018-Jun-07 18:59N 28°57' W 095°20'0 0.0
2018-Jun-07 18:29N 28°57' W 095°20'0 0.0
2018-Jun-07 17:59N 28°57' W 095°20'0 0.0
2018-Jun-07 17:26N 28°57' W 095°20'0 0.0
2018-Jun-07 16:53N 28°57' W 095°20'0 0.0
2018-Jun-07 16:23N 28°57' W 095°20'0 0.0
2018-Jun-07 15:59N 28°57' W 095°20'0 0.0
2018-Jun-07 15:29N 28°57' W 095°20'0 0.0
2018-Jun-07 14:59N 28°57' W 095°20'0 0.0
2018-Jun-07 14:29N 28°57' W 095°20'0 0.0
2018-Jun-07 13:59N 28°57' W 095°20'0 0.0
2018-Jun-07 13:23N 28°57' W 095°20'0 0.0
2018-Jun-07 12:59N 28°57' W 095°20'0 0.0
2018-Jun-07 12:26N 28°57' W 095°20'0 0.0
2018-Jun-07 11:59N 28°57' W 095°20'0 0.0
2018-Jun-07 11:30N 28°57' W 095°20'1 1.4
2018-Jun-07 11:00N 28°56' W 095°19'8 7.0
2018-Jun-07 09:53N 28°52' W 095°12'1 2.9
2018-Jun-07 09:31N 28°51' W 095°11'4 7.0
2018-Jun-07 09:00N 28°48' W 095°08'510.1
2018-Jun-07 08:28N 28°44' W 095°04'510.0
2018-Jun-07 07:58N 28°40' W 095°01'12 7.6
2018-Jun-07 06:20N 28°31' W 094°52'410.0
2018-Jun-07 05:58N 28°33' W 094°55'  
Track history (hours):
 
Tides and Currents Weather Stations Pressure Air Temp Water Temp Dewpoint Dewpoint Depression Visibility Wind Speed Wind Dir Waves Ship Positions

Coral Bay

Last reported at 2018-Jun-15 23:44 UTC. Time now 2018-Jun-18 22:40 UTC.
Position N 25°60' W 079°41'.

Length 212 m; draft 8.5 m.

Type: Cargo ship. MMSI: 636017218.

Date/timePositionNaut miles runAvg speedWind from/ knotsBaromVisibWave heightAir tempDewpointWater temp
2018-Jun-15 23:44N 25°60' W 079°41'312.1
2018-Jun-15 23:28N 26°01' W 079°45'612.1
2018-Jun-15 23:00N 26°03' W 079°51'612.7
2018-Jun-15 22:30N 26°04' W 079°57'612.9
2018-Jun-15 22:00N 26°05' W 080°05'2 4.4
2018-Jun-15 21:30N 26°04' W 080°07'0 0.4
2018-Jun-15 21:00N 26°04' W 080°07'0 0.0
2018-Jun-15 20:30N 26°04' W 080°07'0 0.0
2018-Jun-15 20:00N 26°04' W 080°07'0 0.0
2018-Jun-15 19:30N 26°04' W 080°07'0 0.0
2018-Jun-15 19:00N 26°04' W 080°07'0 0.0
2018-Jun-15 18:30N 26°04' W 080°07'0 0.0
2018-Jun-15 18:00N 26°04' W 080°07'0 0.0
2018-Jun-15 17:30N 26°04' W 080°07'0 0.0
2018-Jun-15 16:57N 26°04' W 080°07'0 0.0
2018-Jun-15 16:30N 26°04' W 080°07'0 0.0
2018-Jun-15 16:00N 26°04' W 080°07'0 0.0
2018-Jun-15 15:30N 26°04' W 080°07'0 0.0
2018-Jun-15 15:00N 26°04' W 080°07'0 0.0
2018-Jun-15 14:30N 26°04' W 080°07'0 0.0
2018-Jun-15 13:51N 26°04' W 080°07'0 0.0
2018-Jun-15 13:18N 26°04' W 080°07'0 0.0
2018-Jun-15 12:48N 26°04' W 080°07'0 0.0
2018-Jun-15 12:24N 26°04' W 080°07'0 0.0
2018-Jun-15 11:54N 26°04' W 080°07'0 0.0
2018-Jun-15 11:24N 26°04' W 080°07'0 0.0
2018-Jun-15 10:54N 26°04' W 080°07'0 0.0
2018-Jun-15 10:24N 26°04' W 080°07'0 0.0
2018-Jun-15 09:58N 26°04' W 080°07'1 1.8
2018-Jun-15 09:30N 26°05' W 080°07'3 5.9
2018-Jun-15 09:00N 26°05' W 080°04'3 5.6
2018-Jun-15 08:30N 26°05' W 080°01'5 8.9
2018-Jun-15 08:00N 26°04' W 079°56'2 4.7
2018-Jun-15 07:30N 26°03' W 079°53'4 8.1
2018-Jun-15 06:59N 26°02' W 079°49'1 2.4
2018-Jun-15 06:30N 26°02' W 079°50'611.8
2018-Jun-15 05:59N 26°00' W 079°43'2 3.3
2018-Jun-15 05:20N 26°00' W 079°45'411.7
2018-Jun-15 05:00N 25°59' W 079°41'611.1
2018-Jun-15 04:30N 25°54' W 079°38'715.1
2018-Jun-15 04:00N 25°47' W 079°38'815.0
2018-Jun-15 03:30N 25°39' W 079°38'  
2018-Jun-08 03:24N 28°14' W 094°35'2013.0
2018-Jun-08 01:53N 28°29' W 094°50'1313.4
2018-Jun-08 00:56N 28°39' W 094°59'813.3
2018-Jun-08 00:21N 28°45' W 095°05'513.4
2018-Jun-08 00:00N 28°48' W 095°09'713.2
2018-Jun-07 23:30N 28°53' W 095°14'510.5
2018-Jun-07 23:00N 28°56' W 095°18'1 3.0
2018-Jun-07 22:30N 28°57' W 095°20'0 0.0
2018-Jun-07 22:00N 28°57' W 095°20'0 0.0
2018-Jun-07 21:29N 28°57' W 095°20'0 0.0
2018-Jun-07 20:56N 28°57' W 095°20'0 0.0
2018-Jun-07 20:29N 28°57' W 095°20'0 0.0
2018-Jun-07 19:47N 28°57' W 095°20'0 0.0
2018-Jun-07 19:29N 28°57' W 095°20'0 0.0
2018-Jun-07 18:59N 28°57' W 095°20'0 0.0
2018-Jun-07 18:29N 28°57' W 095°20'0 0.0
2018-Jun-07 17:59N 28°57' W 095°20'0 0.0
2018-Jun-07 17:26N 28°57' W 095°20'0 0.0
2018-Jun-07 16:53N 28°57' W 095°20'0 0.0
2018-Jun-07 16:23N 28°57' W 095°20'0 0.0
2018-Jun-07 15:59N 28°57' W 095°20'0 0.0
2018-Jun-07 15:29N 28°57' W 095°20'0 0.0
2018-Jun-07 14:59N 28°57' W 095°20'0 0.0
2018-Jun-07 14:29N 28°57' W 095°20'0 0.0
2018-Jun-07 13:59N 28°57' W 095°20'0 0.0
2018-Jun-07 13:23N 28°57' W 095°20'0 0.0
2018-Jun-07 12:59N 28°57' W 095°20'0 0.0
2018-Jun-07 12:26N 28°57' W 095°20'0 0.0
2018-Jun-07 11:59N 28°57' W 095°20'0 0.0
2018-Jun-07 11:30N 28°57' W 095°20'1 1.4
2018-Jun-07 11:00N 28°56' W 095°19'8 7.0
2018-Jun-07 09:53N 28°52' W 095°12'1 2.9
2018-Jun-07 09:31N 28°51' W 095°11'4 7.0
2018-Jun-07 09:00N 28°48' W 095°08'510.1
2018-Jun-07 08:28N 28°44' W 095°04'510.0
2018-Jun-07 07:58N 28°40' W 095°01'12 7.6
2018-Jun-07 06:20N 28°31' W 094°52'410.0
2018-Jun-07 05:58N 28°33' W 094°55'  

Dump ship's entire track history